DAL2581 KSFO-KLAX
Flight info
| Callsign | DAL2581 |
|---|---|
| Flight time | 0h 53m |
| Altitude | 37000 |
| Route | WESLA5 SUSEY EBAYE BURGL IRNMN2 |
| Aircraft | A320/M-SDE3FGHIRWY/LB1 |
Departure
| Time | 2026-05-05 02:04 |
|---|---|
| Airport | San Francisco International Airport (KSFO) |
Arrival
| Time | 2026-05-05 02:58 |
|---|---|
| Airport | Los Angeles International Airport (KLAX) |
| Time | Latitude | Longitude | Altitude | Speed | Heading |
|---|---|---|---|---|---|
| 2026-05-05 01:52 | 37.61885 | -122.38381 | 23 ft | 0 kts | 298° |
| 2026-05-05 01:54 | 37.61880 | -122.38370 | 22 ft | 4 kts | 300° |
| 2026-05-05 01:54 | 37.61868 | -122.38340 | 23 ft | 4 kts | 294° |
| 2026-05-05 01:55 | 37.61857 | -122.38309 | 22 ft | 4 kts | 291° |
| 2026-05-05 01:55 | 37.61854 | -122.38298 | 23 ft | 0 kts | 291° |
| 2026-05-05 01:57 | 37.61855 | -122.38299 | 23 ft | 1 kts | 298° |
| 2026-05-05 01:57 | 37.61892 | -122.38293 | 22 ft | 14 kts | 17° |
| 2026-05-05 01:57 | 37.61929 | -122.38272 | 21 ft | 0 kts | 27° |
| 2026-05-05 01:58 | 37.61950 | -122.38253 | 21 ft | 10 kts | 45° |
| 2026-05-05 01:59 | 37.61941 | -122.38143 | 21 ft | 18 kts | 116° |
| 2026-05-05 01:59 | 37.61868 | -122.37968 | 21 ft | 23 kts | 119° |
| 2026-05-05 01:59 | 37.61803 | -122.37786 | 21 ft | 22 kts | 113° |
| 2026-05-05 01:59 | 37.61745 | -122.37608 | 21 ft | 22 kts | 107° |
| 2026-05-05 02:00 | 37.61688 | -122.37436 | 21 ft | 21 kts | 118° |
| 2026-05-05 02:00 | 37.61620 | -122.37278 | 22 ft | 20 kts | 118° |
| 2026-05-05 02:00 | 37.61553 | -122.37116 | 21 ft | 22 kts | 118° |
| 2026-05-05 02:00 | 37.61485 | -122.36953 | 21 ft | 20 kts | 118° |
| 2026-05-05 02:01 | 37.61401 | -122.36827 | 21 ft | 18 kts | 135° |
| 2026-05-05 02:01 | 37.61321 | -122.36674 | 30 ft | 26 kts | 117° |
| 2026-05-05 02:01 | 37.61236 | -122.36471 | 21 ft | 26 kts | 119° |
| 2026-05-05 02:01 | 37.61151 | -122.36274 | 21 ft | 25 kts | 116° |
| 2026-05-05 02:02 | 37.61070 | -122.36078 | 21 ft | 25 kts | 117° |
| 2026-05-05 02:02 | 37.61055 | -122.35962 | 21 ft | 1 kts | 84° |
| 2026-05-05 02:02 | 37.61086 | -122.35912 | 21 ft | 15 kts | 40° |
| 2026-05-05 02:02 | 37.61106 | -122.35898 | 21 ft | 0 kts | 26° |
| 2026-05-05 02:03 | 37.61112 | -122.35894 | 21 ft | 5 kts | 26° |
| 2026-05-05 02:03 | 37.61168 | -122.35870 | 23 ft | 9 kts | 5° |
| 2026-05-05 02:03 | 37.61205 | -122.35916 | 21 ft | 8 kts | 296° |
| 2026-05-05 02:04 | 37.61268 | -122.36071 | 22 ft | 48 kts | 297° |
| 2026-05-05 02:04 | 37.61541 | -122.36719 | 21 ft | 116 kts | 297° |
| 2026-05-05 02:04 | 37.62001 | -122.37808 | 95 ft | 157 kts | 298° |
| 2026-05-05 02:04 | 37.62498 | -122.38984 | 768 ft | 153 kts | 296° |
| 2026-05-05 02:05 | 37.62985 | -122.40195 | 1439 ft | 156 kts | 297° |
| 2026-05-05 02:05 | 37.63522 | -122.41435 | 1935 ft | 170 kts | 296° |
| 2026-05-05 02:05 | 37.64121 | -122.42824 | 2255 ft | 189 kts | 296° |
| 2026-05-05 02:05 | 37.64786 | -122.44370 | 2566 ft | 213 kts | 297° |
| 2026-05-05 02:06 | 37.65535 | -122.46068 | 3250 ft | 224 kts | 298° |
| 2026-05-05 02:06 | 37.66305 | -122.47796 | 4071 ft | 232 kts | 297° |
| 2026-05-05 02:06 | 37.66887 | -122.49748 | 4665 ft | 248 kts | 271° |
| 2026-05-05 02:06 | 37.66459 | -122.51872 | 5254 ft | 258 kts | 233° |
| 2026-05-05 02:07 | 37.65190 | -122.53499 | 6042 ft | 265 kts | 221° |
| 2026-05-05 02:07 | 37.63828 | -122.55117 | 6848 ft | 272 kts | 223° |
| 2026-05-05 02:07 | 37.62439 | -122.56790 | 7630 ft | 279 kts | 223° |
| 2026-05-05 02:07 | 37.61010 | -122.58495 | 8457 ft | 286 kts | 223° |
| 2026-05-05 02:08 | 37.59543 | -122.60223 | 9250 ft | 292 kts | 223° |
| 2026-05-05 02:08 | 37.57894 | -122.61765 | 10003 ft | 300 kts | 205° |
| 2026-05-05 02:08 | 37.55861 | -122.62457 | 10532 ft | 313 kts | 181° |
| 2026-05-05 02:08 | 37.53686 | -122.61974 | 10768 ft | 333 kts | 154° |
| 2026-05-05 02:09 | 37.51818 | -122.60222 | 11235 ft | 341 kts | 130° |
| 2026-05-05 02:09 | 37.50256 | -122.57946 | 11978 ft | 345 kts | 129° |
| 2026-05-05 02:09 | 37.48678 | -122.55644 | 12786 ft | 349 kts | 129° |
| 2026-05-05 02:09 | 37.47082 | -122.53329 | 13591 ft | 352 kts | 129° |
| 2026-05-05 02:10 | 37.45466 | -122.50991 | 14331 ft | 356 kts | 128° |
| 2026-05-05 02:10 | 37.43835 | -122.48637 | 15075 ft | 358 kts | 128° |
| 2026-05-05 02:10 | 37.42189 | -122.46265 | 15826 ft | 361 kts | 128° |
| 2026-05-05 02:10 | 37.40531 | -122.43879 | 16562 ft | 364 kts | 128° |
| 2026-05-05 02:11 | 37.38860 | -122.41473 | 17287 ft | 366 kts | 128° |
| 2026-05-05 02:11 | 37.37180 | -122.39053 | 18010 ft | 369 kts | 128° |
| 2026-05-05 02:11 | 37.35487 | -122.36614 | 18676 ft | 371 kts | 128° |
| 2026-05-05 02:11 | 37.33781 | -122.34155 | 19287 ft | 374 kts | 127° |
| 2026-05-05 02:12 | 37.32067 | -122.31686 | 19925 ft | 375 kts | 127° |
| 2026-05-05 02:12 | 37.28614 | -122.26709 | 21081 ft | 380 kts | 126° |
| 2026-05-05 02:12 | 37.26865 | -122.24186 | 21629 ft | 384 kts | 126° |
| 2026-05-05 02:13 | 37.25118 | -122.21671 | 22176 ft | 387 kts | 126° |
| 2026-05-05 02:13 | 37.23338 | -122.19117 | 22743 ft | 390 kts | 126° |
| 2026-05-05 02:13 | 37.21538 | -122.16542 | 23316 ft | 392 kts | 126° |
| 2026-05-05 02:13 | 37.19730 | -122.13958 | 23831 ft | 395 kts | 126° |
| 2026-05-05 02:14 | 37.17910 | -122.11362 | 24291 ft | 397 kts | 126° |
| 2026-05-05 02:14 | 37.16102 | -122.08782 | 24764 ft | 399 kts | 126° |
| 2026-05-05 02:14 | 37.14261 | -122.06153 | 25252 ft | 400 kts | 126° |
| 2026-05-05 02:14 | 37.12420 | -122.03527 | 25783 ft | 402 kts | 126° |
| 2026-05-05 02:15 | 37.10566 | -122.00885 | 26268 ft | 403 kts | 125° |
| 2026-05-05 02:15 | 37.08708 | -121.98236 | 26727 ft | 405 kts | 125° |
| 2026-05-05 02:15 | 37.06860 | -121.95606 | 27160 ft | 408 kts | 125° |
| 2026-05-05 02:15 | 37.04977 | -121.92929 | 27586 ft | 410 kts | 125° |
| 2026-05-05 02:16 | 37.03080 | -121.90233 | 27998 ft | 412 kts | 125° |
| 2026-05-05 02:16 | 37.01179 | -121.87530 | 28415 ft | 414 kts | 125° |
| 2026-05-05 02:16 | 36.99270 | -121.84814 | 28842 ft | 416 kts | 125° |
| 2026-05-05 02:16 | 36.97370 | -121.82116 | 29169 ft | 422 kts | 126° |
| 2026-05-05 02:17 | 36.95419 | -121.79349 | 29425 ft | 426 kts | 126° |
| 2026-05-05 02:17 | 36.93448 | -121.76564 | 29839 ft | 428 kts | 126° |
| 2026-05-05 02:17 | 36.91470 | -121.73775 | 30192 ft | 430 kts | 126° |
| 2026-05-05 02:17 | 36.89478 | -121.70969 | 30468 ft | 433 kts | 126° |
| 2026-05-05 02:18 | 36.87466 | -121.68130 | 30732 ft | 436 kts | 127° |
| 2026-05-05 02:18 | 36.85444 | -121.65276 | 30994 ft | 440 kts | 127° |
| 2026-05-05 02:18 | 36.83407 | -121.62405 | 31367 ft | 441 kts | 128° |
| 2026-05-05 02:18 | 36.81356 | -121.59521 | 31605 ft | 445 kts | 128° |
| 2026-05-05 02:19 | 36.79291 | -121.56618 | 31918 ft | 447 kts | 129° |
| 2026-05-05 02:19 | 36.77246 | -121.53746 | 32254 ft | 449 kts | 129° |
| 2026-05-05 02:19 | 36.75168 | -121.50827 | 32628 ft | 449 kts | 129° |
| 2026-05-05 02:19 | 36.73094 | -121.47914 | 32971 ft | 450 kts | 129° |
| 2026-05-05 02:20 | 36.71006 | -121.44986 | 33058 ft | 455 kts | 130° |
| 2026-05-05 02:20 | 36.66722 | -121.38994 | 33048 ft | 468 kts | 130° |
| 2026-05-05 02:21 | 36.62365 | -121.32915 | 33054 ft | 470 kts | 130° |
| 2026-05-05 02:21 | 36.58037 | -121.26878 | 33054 ft | 470 kts | 129° |
| 2026-05-05 02:22 | 36.53679 | -121.20813 | 33053 ft | 469 kts | 131° |
| 2026-05-05 02:22 | 36.49292 | -121.14727 | 33035 ft | 473 kts | 131° |
| 2026-05-05 02:23 | 36.44899 | -121.08627 | 33036 ft | 473 kts | 131° |
| 2026-05-05 02:23 | 36.40524 | -121.02525 | 33025 ft | 473 kts | 130° |
| 2026-05-05 02:24 | 36.36263 | -120.96375 | 33015 ft | 473 kts | 129° |
| 2026-05-05 02:24 | 36.31998 | -120.90166 | 33007 ft | 472 kts | 130° |
| 2026-05-05 02:25 | 36.27570 | -120.84134 | 33018 ft | 472 kts | 134° |
| 2026-05-05 02:25 | 36.22846 | -120.78475 | 33018 ft | 472 kts | 137° |
| 2026-05-05 02:26 | 36.18057 | -120.72875 | 33002 ft | 473 kts | 137° |
| 2026-05-05 02:26 | 36.13356 | -120.67225 | 33010 ft | 474 kts | 136° |
| 2026-05-05 02:27 | 36.08667 | -120.61475 | 33001 ft | 475 kts | 135° |
| 2026-05-05 02:27 | 36.03961 | -120.55729 | 32997 ft | 476 kts | 136° |
| 2026-05-05 02:28 | 35.99204 | -120.49974 | 32994 ft | 477 kts | 137° |
| 2026-05-05 02:28 | 35.94484 | -120.44271 | 33005 ft | 478 kts | 137° |
| 2026-05-05 02:29 | 35.89732 | -120.38523 | 32987 ft | 479 kts | 138° |
| 2026-05-05 02:29 | 35.84960 | -120.32773 | 33009 ft | 479 kts | 138° |
| 2026-05-05 02:30 | 35.80173 | -120.27038 | 33009 ft | 479 kts | 138° |
| 2026-05-05 02:30 | 35.75385 | -120.21303 | 33016 ft | 480 kts | 139° |
| 2026-05-05 02:31 | 35.70621 | -120.15585 | 33010 ft | 480 kts | 139° |
| 2026-05-05 02:31 | 35.65672 | -120.10102 | 32995 ft | 475 kts | 149° |
| 2026-05-05 02:32 | 35.60061 | -120.05816 | 33002 ft | 474 kts | 152° |
| 2026-05-05 02:32 | 35.54430 | -120.01593 | 33008 ft | 473 kts | 153° |
| 2026-05-05 02:33 | 35.48814 | -119.97374 | 33028 ft | 473 kts | 153° |
| 2026-05-05 02:33 | 35.43230 | -119.93177 | 33028 ft | 473 kts | 153° |
| 2026-05-05 02:34 | 35.37618 | -119.88966 | 33034 ft | 473 kts | 154° |
| 2026-05-05 02:34 | 35.32003 | -119.84762 | 33042 ft | 473 kts | 154° |
| 2026-05-05 02:35 | 35.26536 | -119.80234 | 33025 ft | 476 kts | 148° |
| 2026-05-05 02:35 | 35.21281 | -119.75306 | 33026 ft | 475 kts | 149° |
| 2026-05-05 02:36 | 35.16041 | -119.70416 | 33024 ft | 473 kts | 149° |
| 2026-05-05 02:36 | 35.11693 | -119.66371 | 33030 ft | 472 kts | 149° |
| 2026-05-05 02:37 | 35.06474 | -119.61507 | 32963 ft | 472 kts | 149° |
| 2026-05-05 02:37 | 35.03878 | -119.59084 | 32427 ft | 466 kts | 150° |
| 2026-05-05 02:37 | 35.01349 | -119.56719 | 31419 ft | 452 kts | 150° |
| 2026-05-05 02:37 | 34.98859 | -119.54399 | 30402 ft | 448 kts | 150° |
| 2026-05-05 02:38 | 34.96379 | -119.52106 | 30132 ft | 451 kts | 151° |
| 2026-05-05 02:38 | 34.93861 | -119.49791 | 29514 ft | 454 kts | 150° |
| 2026-05-05 02:38 | 34.91336 | -119.47468 | 28931 ft | 456 kts | 150° |
| 2026-05-05 02:38 | 34.88789 | -119.45147 | 28451 ft | 457 kts | 150° |
| 2026-05-05 02:39 | 34.86225 | -119.42844 | 27975 ft | 459 kts | 151° |
| 2026-05-05 02:39 | 34.83647 | -119.40547 | 27499 ft | 459 kts | 151° |
| 2026-05-05 02:39 | 34.81059 | -119.38250 | 27008 ft | 460 kts | 150° |
| 2026-05-05 02:39 | 34.78467 | -119.35953 | 26510 ft | 462 kts | 150° |
| 2026-05-05 02:40 | 34.75866 | -119.33646 | 26028 ft | 464 kts | 150° |
| 2026-05-05 02:40 | 34.73254 | -119.31328 | 25529 ft | 466 kts | 150° |
| 2026-05-05 02:40 | 34.70620 | -119.29009 | 25048 ft | 467 kts | 149° |
| 2026-05-05 02:40 | 34.67978 | -119.26699 | 24549 ft | 469 kts | 149° |
| 2026-05-05 02:41 | 34.65320 | -119.24383 | 24035 ft | 471 kts | 149° |
| 2026-05-05 02:41 | 34.62644 | -119.22063 | 23438 ft | 473 kts | 149° |
| 2026-05-05 02:41 | 34.59954 | -119.19747 | 22801 ft | 475 kts | 149° |
| 2026-05-05 02:41 | 34.57259 | -119.17434 | 22235 ft | 472 kts | 149° |
| 2026-05-05 02:42 | 34.54617 | -119.15154 | 21567 ft | 461 kts | 148° |
| 2026-05-05 02:42 | 34.52018 | -119.12875 | 21034 ft | 462 kts | 148° |
| 2026-05-05 02:42 | 34.49421 | -119.10572 | 20448 ft | 463 kts | 148° |
| 2026-05-05 02:42 | 34.46868 | -119.08288 | 20031 ft | 448 kts | 147° |
| 2026-05-05 02:43 | 34.44418 | -119.06093 | 19377 ft | 442 kts | 147° |
| 2026-05-05 02:43 | 34.41906 | -119.03868 | 18763 ft | 442 kts | 148° |
| 2026-05-05 02:43 | 34.39407 | -119.01689 | 18189 ft | 443 kts | 148° |
| 2026-05-05 02:43 | 34.36895 | -118.99525 | 17588 ft | 444 kts | 148° |
| 2026-05-05 02:44 | 34.34406 | -118.97394 | 17045 ft | 443 kts | 148° |
| 2026-05-05 02:44 | 34.31945 | -118.95254 | 16341 ft | 426 kts | 147° |
| 2026-05-05 02:44 | 34.29552 | -118.93111 | 15650 ft | 431 kts | 146° |
| 2026-05-05 02:44 | 34.27151 | -118.90919 | 14985 ft | 433 kts | 146° |
| 2026-05-05 02:45 | 34.24765 | -118.88720 | 14326 ft | 427 kts | 145° |
| 2026-05-05 02:45 | 34.22489 | -118.86602 | 13530 ft | 402 kts | 145° |
| 2026-05-05 02:45 | 34.20284 | -118.84557 | 12505 ft | 401 kts | 145° |
| 2026-05-05 02:45 | 34.18045 | -118.82498 | 12225 ft | 406 kts | 145° |
| 2026-05-05 02:46 | 34.15792 | -118.80394 | 11969 ft | 409 kts | 143° |
| 2026-05-05 02:46 | 34.13614 | -118.78181 | 11717 ft | 409 kts | 141° |
| 2026-05-05 02:46 | 34.11495 | -118.75878 | 11452 ft | 411 kts | 140° |
| 2026-05-05 02:46 | 34.09427 | -118.73558 | 11206 ft | 402 kts | 139° |
| 2026-05-05 02:47 | 34.07381 | -118.71248 | 10971 ft | 399 kts | 139° |
| 2026-05-05 02:47 | 34.05369 | -118.68992 | 10753 ft | 398 kts | 139° |
| 2026-05-05 02:47 | 34.03578 | -118.66426 | 10379 ft | 402 kts | 122° |
| 2026-05-05 02:47 | 34.02700 | -118.63283 | 10121 ft | 390 kts | 100° |
| 2026-05-05 02:48 | 34.02375 | -118.60109 | 9999 ft | 371 kts | 98° |
| 2026-05-05 02:48 | 34.02091 | -118.57133 | 9861 ft | 348 kts | 98° |
| 2026-05-05 02:48 | 34.01836 | -118.54369 | 9579 ft | 316 kts | 98° |
| 2026-05-05 02:48 | 34.01603 | -118.51836 | 9164 ft | 295 kts | 98° |
| 2026-05-05 02:49 | 34.01367 | -118.49330 | 8340 ft | 304 kts | 98° |
| 2026-05-05 02:49 | 34.01133 | -118.46818 | 7660 ft | 294 kts | 96° |
| 2026-05-05 02:49 | 34.01243 | -118.44460 | 7366 ft | 272 kts | 79° |
| 2026-05-05 02:49 | 34.01606 | -118.42309 | 6997 ft | 257 kts | 78° |
| 2026-05-05 02:50 | 34.01959 | -118.40244 | 6683 ft | 247 kts | 78° |
| 2026-05-05 02:50 | 34.02307 | -118.38229 | 6391 ft | 243 kts | 78° |
| 2026-05-05 02:50 | 34.02652 | -118.36243 | 6039 ft | 239 kts | 79° |
| 2026-05-05 02:50 | 34.02933 | -118.34285 | 5743 ft | 234 kts | 83° |
| 2026-05-05 02:51 | 34.03136 | -118.32361 | 5454 ft | 229 kts | 84° |
| 2026-05-05 02:51 | 34.03315 | -118.30466 | 5182 ft | 225 kts | 85° |
| 2026-05-05 02:51 | 34.03487 | -118.28628 | 4927 ft | 215 kts | 84° |
| 2026-05-05 02:51 | 34.03653 | -118.26905 | 4645 ft | 204 kts | 84° |
| 2026-05-05 02:52 | 34.03721 | -118.25249 | 4377 ft | 193 kts | 98° |
| 2026-05-05 02:52 | 34.03328 | -118.23740 | 4147 ft | 186 kts | 121° |
| 2026-05-05 02:52 | 34.02546 | -118.22552 | 3919 ft | 177 kts | 142° |
| 2026-05-05 02:52 | 34.01517 | -118.21789 | 3700 ft | 171 kts | 162° |
| 2026-05-05 02:53 | 34.00379 | -118.21492 | 3525 ft | 165 kts | 182° |
| 2026-05-05 02:53 | 33.99247 | -118.21646 | 3305 ft | 163 kts | 198° |
| 2026-05-05 02:53 | 33.98248 | -118.22205 | 3102 ft | 158 kts | 216° |
| 2026-05-05 02:53 | 33.97452 | -118.23102 | 2898 ft | 153 kts | 233° |
| 2026-05-05 02:54 | 33.96942 | -118.24195 | 2707 ft | 146 kts | 250° |
| 2026-05-05 02:54 | 33.96716 | -118.25364 | 2532 ft | 142 kts | 263° |
| 2026-05-05 02:54 | 33.96599 | -118.26543 | 2353 ft | 143 kts | 263° |
| 2026-05-05 02:54 | 33.96480 | -118.27721 | 2167 ft | 145 kts | 262° |
| 2026-05-05 02:55 | 33.96359 | -118.28921 | 1976 ft | 141 kts | 262° |
| 2026-05-05 02:55 | 33.96243 | -118.30064 | 1786 ft | 136 kts | 263° |
| 2026-05-05 02:55 | 33.96128 | -118.31179 | 1620 ft | 132 kts | 262° |
| 2026-05-05 02:55 | 33.96030 | -118.32260 | 1421 ft | 127 kts | 263° |
| 2026-05-05 02:56 | 33.95918 | -118.33312 | 1262 ft | 128 kts | 262° |
| 2026-05-05 02:56 | 33.95806 | -118.34374 | 1065 ft | 126 kts | 264° |
| 2026-05-05 02:56 | 33.95707 | -118.35419 | 897 ft | 125 kts | 265° |
| 2026-05-05 02:56 | 33.95601 | -118.36467 | 723 ft | 127 kts | 261° |
| 2026-05-05 02:57 | 33.95487 | -118.37535 | 539 ft | 131 kts | 260° |
| 2026-05-05 02:57 | 33.95377 | -118.38610 | 365 ft | 130 kts | 261° |
| 2026-05-05 02:57 | 33.95265 | -118.39689 | 218 ft | 128 kts | 261° |
| 2026-05-05 02:57 | 33.95153 | -118.40741 | 100 ft | 119 kts | 261° |
| 2026-05-05 02:58 | 33.95051 | -118.41643 | 98 ft | 99 kts | 263° |
| 2026-05-05 02:58 | 33.94999 | -118.42280 | 94 ft | 51 kts | 263° |
| 2026-05-05 02:58 | 33.94916 | -118.42579 | 96 ft | 35 kts | 238° |
| 2026-05-05 02:58 | 33.94846 | -118.42685 | 96 ft | 12 kts | 227° |
| 2026-05-05 02:59 | 33.94785 | -118.42734 | 98 ft | 9 kts | 199° |
| 2026-05-05 02:59 | 33.94713 | -118.42763 | 99 ft | 13 kts | 199° |
| 2026-05-05 02:59 | 33.94626 | -118.42774 | 95 ft | 7 kts | 172° |
| 2026-05-05 02:59 | 33.94576 | -118.42759 | 96 ft | 8 kts | 148° |
| 2026-05-05 03:00 | 33.94563 | -118.42656 | 94 ft | 19 kts | 82° |
| 2026-05-05 03:00 | 33.94585 | -118.42464 | 94 ft | 23 kts | 83° |
| 2026-05-05 03:00 | 33.94601 | -118.42275 | 94 ft | 20 kts | 84° |
| 2026-05-05 03:00 | 33.94613 | -118.42130 | 95 ft | 17 kts | 84° |
| 2026-05-05 03:01 | 33.94626 | -118.41988 | 93 ft | 17 kts | 84° |
| 2026-05-05 03:01 | 33.94636 | -118.41850 | 93 ft | 16 kts | 86° |
| 2026-05-05 03:01 | 33.94646 | -118.41715 | 95 ft | 16 kts | 83° |
| 2026-05-05 03:01 | 33.94659 | -118.41585 | 95 ft | 15 kts | 83° |
| 2026-05-05 03:02 | 33.94672 | -118.41461 | 93 ft | 15 kts | 83° |
| 2026-05-05 03:02 | 33.94684 | -118.41342 | 95 ft | 14 kts | 83° |
| 2026-05-05 03:02 | 33.94639 | -118.41279 | 93 ft | 13 kts | 171° |
| 2026-05-05 03:02 | 33.94511 | -118.41257 | 94 ft | 24 kts | 173° |
| 2026-05-05 03:03 | 33.94334 | -118.41233 | 95 ft | 26 kts | 174° |
| 2026-05-05 03:03 | 33.94153 | -118.41206 | 94 ft | 27 kts | 173° |
| 2026-05-05 03:03 | 33.93976 | -118.41178 | 93 ft | 25 kts | 172° |
| 2026-05-05 03:03 | 33.93854 | -118.41127 | 94 ft | 14 kts | 113° |
| 2026-05-05 03:04 | 33.93857 | -118.41017 | 93 ft | 13 kts | 82° |
| 2026-05-05 03:04 | 33.93871 | -118.40890 | 95 ft | 16 kts | 84° |
| 2026-05-05 03:04 | 33.93925 | -118.40800 | 95 ft | 13 kts | 7° |
| 2026-05-05 03:04 | 33.94010 | -118.40824 | 95 ft | 12 kts | 348° |
| 2026-05-05 03:05 | 33.94076 | -118.40819 | 94 ft | 9 kts | 42° |
| 2026-05-05 03:05 | 33.94100 | -118.40760 | 95 ft | 5 kts | 69° |
| 2026-05-05 03:05 | 33.94106 | -118.40741 | 94 ft | 0 kts | 69° |